Time;durP1;ratioP1;P1;durP2;ratioP2;P2;SDS_P1;SDS_P2;PMS_P1;PMS_P2;Temp;Humidity;BMP_temperature;BMP_pressure;BME280_temperature;BME280_humidity;BME280_pressure;Samples;Min_cycle;Max_cycle;Signal;HPM_P1;HPM_P2
2023/07/09 00:02:43;;;;;;;9.55;5.63;;;;;;;;;;5009176;28;20048;-66
2023/07/09 00:05:16;;;;;;;9.00;5.70;;;;;;;;;;5017532;28;20603;-64
2023/07/09 00:07:44;;;;;;;10.05;5.70;;;;;;;;;;5016957;28;20089;-64
2023/07/09 00:10:18;;;;;;;8.75;5.43;;;;;;;;;;5013866;28;20124;-65
2023/07/09 00:12:45;;;;;;;9.60;5.50;;;;;;;;;;5016913;28;21652;-64
2023/07/09 00:15:15;;;;;;;8.88;4.88;;;;;;;;;;5014914;28;20046;-64
2023/07/09 00:17:42;;;;;;;8.45;5.60;;;;;;;;;;5013115;28;20159;-64
2023/07/09 00:20:14;;;;;;;11.35;5.03;;;;;;;;;;5017526;28;20041;-64
2023/07/09 00:22:41;;;;;;;7.70;4.57;;;;;;;;;;5015935;28;20052;-64
2023/07/09 00:25:16;;;;;;;7.95;5.10;;;;;;;;;;5016059;28;20043;-64
2023/07/09 00:27:46;;;;;;;9.18;5.40;;;;;;;;;;5014375;28;20060;-65
2023/07/09 00:30:20;;;;;;;9.40;5.35;;;;;;;;;;5019500;28;20045;-64
2023/07/09 00:32:46;;;;;;;10.77;5.75;;;;;;;;;;5015445;28;20041;-64
2023/07/09 00:35:15;;;;;;;8.27;4.90;;;;;;;;;;5015366;28;20045;-64
2023/07/09 00:37:43;;;;;;;7.38;5.03;;;;;;;;;;5016761;28;20828;-65
2023/07/09 00:40:16;;;;;;;8.75;5.10;;;;;;;;;;5040059;28;20128;-66
2023/07/09 00:42:44;;;;;;;9.57;5.25;;;;;;;;;;5024489;28;20042;-64
2023/07/09 00:45:19;;;;;;;7.88;4.97;;;;;;;;;;5025354;28;20043;-64
2023/07/09 00:47:49;;;;;;;11.63;5.15;;;;;;;;;;5026193;28;20052;-65
2023/07/09 00:50:27;;;;;;;9.68;5.03;;;;;;;;;;5032329;28;20571;-64
2023/07/09 00:53:18;;;;;;;9.55;5.05;;;;;;;;;;5028471;28;20423;-63
2023/07/09 00:55:46;;;;;;;8.00;4.97;;;;;;;;;;5027868;28;20033;-63
2023/07/09 00:58:18;;;;;;;10.45;5.00;;;;;;;;;;5033639;28;20048;-64
2023/07/09 01:00:47;;;;;;;13.23;5.97;;;;;;;;;;5029232;28;20071;-64
2023/07/09 01:03:42;;;;;;;10.05;5.38;;;;;;;;;;4997415;28;20061;-63
2023/07/09 01:06:09;;;;;;;8.15;4.70;;;;;;;;;;4999769;28;20052;-62
2023/07/09 01:08:38;;;;;;;9.70;5.32;;;;;;;;;;4999236;28;20049;-63
2023/07/09 01:11:08;;;;;;;11.70;5.60;;;;;;;;;;4999012;28;20041;-65
2023/07/09 01:13:35;;;;;;;9.50;5.05;;;;;;;;;;4998212;28;21189;-63
2023/07/09 01:16:02;;;;;;;9.60;4.88;;;;;;;;;;4999435;28;20116;-65
2023/07/09 01:18:29;;;;;;;8.50;5.15;;;;;;;;;;4999964;28;20045;-65
2023/07/09 01:21:02;;;;;;;8.93;5.20;;;;;;;;;;5000072;28;20034;-66
2023/07/09 01:23:29;;;;;;;11.73;5.45;;;;;;;;;;5016629;28;20133;-65
2023/07/09 01:25:56;;;;;;;8.90;5.20;;;;;;;;;;4998944;28;20435;-63
2023/07/09 01:28:22;;;;;;;8.65;5.20;;;;;;;;;;5015399;28;20045;-64
2023/07/09 01:30:53;;;;;;;9.02;5.70;;;;;;;;;;4996561;28;20037;-65
2023/07/09 01:33:21;;;;;;;8.23;5.13;;;;;;;;;;4998312;28;20129;-65
2023/07/09 01:35:48;;;;;;;8.48;5.00;;;;;;;;;;5049087;28;20413;-65
2023/07/09 01:38:16;;;;;;;10.43;5.28;;;;;;;;;;5022545;28;20075;-65
2023/07/09 01:40:43;;;;;;;8.73;5.18;;;;;;;;;;5027391;28;20037;-66
2023/07/09 01:43:09;;;;;;;8.20;5.07;;;;;;;;;;5032148;28;20057;-66
2023/07/09 01:45:57;;;;;;;11.65;5.80;;;;;;;;;;4988590;28;20068;-65
2023/07/09 01:48:24;;;;;;;10.07;5.15;;;;;;;;;;4981709;28;20046;-65
2023/07/09 01:50:51;;;;;;;8.65;5.07;;;;;;;;;;4988109;28;20462;-66
2023/07/09 01:53:20;;;;;;;10.95;4.85;;;;;;;;;;4988280;28;20038;-64
2023/07/09 01:55:48;;;;;;;7.03;4.63;;;;;;;;;;5008719;28;20105;-64
2023/07/09 01:58:16;;;;;;;8.45;5.22;;;;;;;;;;5006608;28;20037;-65
2023/07/09 02:00:44;;;;;;;8.57;4.97;;;;;;;;;;5002614;28;20038;-66
2023/07/09 02:03:12;;;;;;;9.02;4.80;;;;;;;;;;5003056;28;20069;-65
2023/07/09 02:05:39;;;;;;;8.35;5.18;;;;;;;;;;4986594;28;20057;-65
2023/07/09 02:08:05;;;;;;;9.18;4.70;;;;;;;;;;4984792;28;20645;-66
2023/07/09 02:10:32;;;;;;;10.30;5.40;;;;;;;;;;4987285;28;20049;-65
2023/07/09 02:12:59;;;;;;;6.93;4.13;;;;;;;;;;4994591;28;20171;-65
2023/07/09 02:15:26;;;;;;;9.05;4.53;;;;;;;;;;4984778;28;20042;-66
2023/07/09 02:17:52;;;;;;;9.57;5.20;;;;;;;;;;5024940;28;20032;-65
2023/07/09 02:20:19;;;;;;;7.32;4.45;;;;;;;;;;5018075;28;20073;-65
2023/07/09 02:22:46;;;;;;;9.23;5.22;;;;;;;;;;5027233;28;20047;-65
2023/07/09 02:25:13;;;;;;;7.30;4.55;;;;;;;;;;5027459;28;20037;-63
2023/07/09 02:27:39;;;;;;;7.82;4.80;;;;;;;;;;5041011;28;20042;-66
2023/07/09 02:30:07;;;;;;;8.00;4.78;;;;;;;;;;5031941;28;20037;-64
2023/07/09 02:32:34;;;;;;;7.65;4.63;;;;;;;;;;5028605;28;20044;-67
2023/07/09 02:35:01;;;;;;;10.13;4.70;;;;;;;;;;5028366;28;23285;-66
2023/07/09 02:37:47;;;;;;;7.25;5.00;;;;;;;;;;4975978;28;20042;-64
2023/07/09 02:40:14;;;;;;;9.48;5.05;;;;;;;;;;4969471;28;20046;-63
2023/07/09 02:42:41;;;;;;;14.05;4.85;;;;;;;;;;4982318;28;20045;-65
2023/07/09 02:45:10;;;;;;;11.43;5.10;;;;;;;;;;4966667;28;20561;-64
2023/07/09 02:47:36;;;;;;;9.43;4.80;;;;;;;;;;4967328;28;20043;-63
2023/07/09 02:50:03;;;;;;;10.13;5.47;;;;;;;;;;4968961;28;20416;-64
2023/07/09 02:52:30;;;;;;;10.95;5.60;;;;;;;;;;4970173;28;20132;-68
2023/07/09 02:54:57;;;;;;;9.20;5.03;;;;;;;;;;4952528;28;20711;-64
2023/07/09 02:57:44;;;;;;;8.35;5.05;;;;;;;;;;4982536;28;20072;-66
2023/07/09 03:00:11;;;;;;;9.63;5.47;;;;;;;;;;4969447;28;20111;-67
2023/07/09 03:02:40;;;;;;;8.77;4.97;;;;;;;;;;4981227;28;20081;-64
2023/07/09 03:05:06;;;;;;;9.73;5.55;;;;;;;;;;4985850;28;20050;-66
2023/07/09 03:07:33;;;;;;;9.00;5.25;;;;;;;;;;4981803;28;20051;-67
2023/07/09 03:10:00;;;;;;;9.55;5.30;;;;;;;;;;5006543;28;20049;-64
2023/07/09 03:12:26;;;;;;;9.65;5.20;;;;;;;;;;5006672;28;20131;-66
2023/07/09 03:14:53;;;;;;;9.13;5.05;;;;;;;;;;5006152;28;20521;-64
2023/07/09 03:17:19;;;;;;;11.45;5.43;;;;;;;;;;5004588;28;20506;-67
2023/07/09 03:19:46;;;;;;;8.50;5.22;;;;;;;;;;5002899;28;20037;-66
2023/07/09 03:22:13;;;;;;;11.93;6.07;;;;;;;;;;5003739;28;20072;-66
2023/07/09 03:24:39;;;;;;;11.90;6.28;;;;;;;;;;5004187;28;20186;-66
2023/07/09 03:27:06;;;;;;;12.63;7.13;;;;;;;;;;5002845;28;20033;-65
2023/07/09 03:29:34;;;;;;;12.13;7.13;;;;;;;;;;5003679;28;20179;-66
2023/07/09 03:32:00;;;;;;;11.43;6.70;;;;;;;;;;5004850;28;20049;-66
2023/07/09 03:34:27;;;;;;;10.27;6.45;;;;;;;;;;4977450;28;20427;-64
2023/07/09 03:36:53;;;;;;;14.45;7.20;;;;;;;;;;5002500;28;20033;-65
2023/07/09 03:39:20;;;;;;;13.57;6.85;;;;;;;;;;5001821;28;20104;-62
2023/07/09 03:41:47;;;;;;;13.90;7.65;;;;;;;;;;5013520;28;20068;-63
2023/07/09 03:44:13;;;;;;;13.85;7.70;;;;;;;;;;5026731;28;20107;-63
2023/07/09 03:46:40;;;;;;;16.02;8.93;;;;;;;;;;5024159;28;20041;-64
2023/07/09 03:49:06;;;;;;;14.27;8.70;;;;;;;;;;5027465;28;20579;-64
2023/07/09 03:51:33;;;;;;;12.20;8.48;;;;;;;;;;5019088;28;20082;-63
2023/07/09 03:54:00;;;;;;;15.95;8.02;;;;;;;;;;5027842;28;20048;-61
2023/07/09 03:56:27;;;;;;;13.25;8.48;;;;;;;;;;5028394;28;20621;-62
2023/07/09 03:58:53;;;;;;;14.13;8.43;;;;;;;;;;5020833;28;20043;-64
2023/07/09 04:01:20;;;;;;;15.10;8.93;;;;;;;;;;5026194;28;20037;-64
2023/07/09 04:03:48;;;;;;;17.63;9.40;;;;;;;;;;5025539;28;20053;-62
2023/07/09 04:06:14;;;;;;;16.35;9.82;;;;;;;;;;5027635;28;20576;-65
2023/07/09 04:08:41;;;;;;;14.65;8.75;;;;;;;;;;5029206;28;20033;-64
2023/07/09 04:11:08;;;;;;;13.65;9.00;;;;;;;;;;5030582;28;20106;-61
2023/07/09 04:13:34;;;;;;;19.08;8.68;;;;;;;;;;5020583;28;20197;-65
2023/07/09 04:16:02;;;;;;;19.00;9.82;;;;;;;;;;5030052;28;20046;-65
2023/07/09 04:18:29;;;;;;;18.33;10.40;;;;;;;;;;4996551;28;20036;-64
2023/07/09 04:20:55;;;;;;;22.35;11.57;;;;;;;;;;5024956;28;20116;-64
2023/07/09 04:23:22;;;;;;;18.08;11.32;;;;;;;;;;5022881;28;20934;-64
2023/07/09 04:25:49;;;;;;;22.90;10.70;;;;;;;;;;5025671;28;20409;-64
2023/07/09 04:28:16;;;;;;;17.08;9.73;;;;;;;;;;5024102;28;20048;-64
2023/07/09 04:30:49;;;;;;;16.63;10.90;;;;;;;;;;5025870;28;20064;-63
2023/07/09 04:33:17;;;;;;;20.70;11.60;;;;;;;;;;5024135;28;20041;-66
2023/07/09 04:35:44;;;;;;;19.42;11.43;;;;;;;;;;5030331;28;20076;-68
2023/07/09 04:38:11;;;;;;;19.52;11.73;;;;;;;;;;5054204;28;20962;-66
2023/07/09 04:40:38;;;;;;;19.33;11.63;;;;;;;;;;5038779;28;20192;-65
2023/07/09 04:43:04;;;;;;;17.95;11.23;;;;;;;;;;5041997;28;20084;-65
2023/07/09 04:45:31;;;;;;;18.88;12.10;;;;;;;;;;5012828;28;20368;-69
2023/07/09 04:47:57;;;;;;;17.27;11.23;;;;;;;;;;5043197;28;20029;-67
2023/07/09 04:50:24;;;;;;;21.80;11.88;;;;;;;;;;5043727;28;20110;-63
2023/07/09 04:52:52;;;;;;;20.85;11.38;;;;;;;;;;5035173;28;20033;-64
2023/07/09 04:55:18;;;;;;;21.23;12.13;;;;;;;;;;5020109;28;20038;-68
2023/07/09 04:57:45;;;;;;;24.20;12.07;;;;;;;;;;5012447;28;20044;-65
2023/07/09 05:00:12;;;;;;;17.27;11.32;;;;;;;;;;5028814;28;20041;-65
2023/07/09 05:02:39;;;;;;;21.33;12.13;;;;;;;;;;5027447;28;20455;-65
2023/07/09 05:05:07;;;;;;;28.73;12.48;;;;;;;;;;5027990;28;20045;-64
2023/07/09 05:07:36;;;;;;;19.15;11.85;;;;;;;;;;5018099;28;20105;-64
2023/07/09 05:10:02;;;;;;;20.75;12.10;;;;;;;;;;5028198;28;20041;-66
2023/07/09 05:12:29;;;;;;;25.67;12.75;;;;;;;;;;5025129;28;20130;-64
2023/07/09 05:14:56;;;;;;;21.25;13.23;;;;;;;;;;5026542;28;20044;-64
2023/07/09 05:17:23;;;;;;;20.95;12.57;;;;;;;;;;5022716;28;20111;-64
2023/07/09 05:19:50;;;;;;;21.48;12.48;;;;;;;;;;5024684;28;20037;-65
2023/07/09 05:22:17;;;;;;;25.20;13.75;;;;;;;;;;5025533;28;20071;-63
2023/07/09 05:24:44;;;;;;;21.77;12.73;;;;;;;;;;5023811;28;20053;-66
2023/07/09 05:27:11;;;;;;;20.80;12.43;;;;;;;;;;5027095;28;20123;-63
2023/07/09 05:29:37;;;;;;;21.52;12.95;;;;;;;;;;5028443;28;20037;-64
2023/07/09 05:32:04;;;;;;;21.80;13.68;;;;;;;;;;5033063;28;20045;-64
2023/07/09 05:34:31;;;;;;;22.45;14.13;;;;;;;;;;5033112;28;20047;-65
2023/07/09 05:36:57;;;;;;;25.48;13.15;;;;;;;;;;5030167;28;20375;-65
2023/07/09 05:39:24;;;;;;;25.90;13.80;;;;;;;;;;5026154;28;20037;-66
2023/07/09 05:41:51;;;;;;;27.27;13.40;;;;;;;;;;5028805;28;20847;-65
2023/07/09 05:44:17;;;;;;;25.90;13.07;;;;;;;;;;5038151;28;20053;-66
2023/07/09 05:46:44;;;;;;;22.70;13.52;;;;;;;;;;5044389;28;20897;-65
2023/07/09 05:49:10;;;;;;;24.42;13.55;;;;;;;;;;5044864;28;20089;-66
2023/07/09 05:51:37;;;;;;;23.55;13.73;;;;;;;;;;5038268;28;20038;-63
2023/07/09 05:54:04;;;;;;;20.13;12.13;;;;;;;;;;5058840;28;20033;-66
2023/07/09 05:56:30;;;;;;;22.77;12.40;;;;;;;;;;5047101;28;20061;-66
2023/07/09 05:58:57;;;;;;;26.75;12.75;;;;;;;;;;5048832;28;20068;-66
2023/07/09 06:01:24;;;;;;;23.80;11.88;;;;;;;;;;5040660;28;20537;-65
2023/07/09 06:03:51;;;;;;;22.00;12.20;;;;;;;;;;5030205;28;20064;-65
2023/07/09 06:06:17;;;;;;;23.48;10.77;;;;;;;;;;5029380;28;20132;-66
2023/07/09 06:08:44;;;;;;;17.25;9.95;;;;;;;;;;5026383;28;20032;-66
2023/07/09 06:11:11;;;;;;;17.30;9.82;;;;;;;;;;5026771;28;20041;-65
2023/07/09 06:13:38;;;;;;;16.02;8.95;;;;;;;;;;5025624;28;20044;-65
2023/07/09 06:16:04;;;;;;;18.63;8.98;;;;;;;;;;5032465;28;20144;-65
2023/07/09 06:18:31;;;;;;;17.90;9.13;;;;;;;;;;5030908;28;20681;-65
2023/07/09 06:21:01;;;;;;;14.85;7.68;;;;;;;;;;5030124;28;20037;-65
2023/07/09 06:23:28;;;;;;;18.15;8.70;;;;;;;;;;5028454;28;20059;-64
2023/07/09 06:25:55;;;;;;;17.42;8.32;;;;;;;;;;5029036;28;20111;-64
2023/07/09 06:28:23;;;;;;;17.30;8.93;;;;;;;;;;5026312;28;20041;-64
2023/07/09 06:30:50;;;;;;;18.27;8.18;;;;;;;;;;5028745;28;20402;-65
2023/07/09 06:33:18;;;;;;;16.45;7.95;;;;;;;;;;5027834;28;20108;-68
2023/07/09 06:35:51;;;;;;;17.02;9.27;;;;;;;;;;5027919;28;20133;-65
2023/07/09 06:38:18;;;;;;;20.20;8.70;;;;;;;;;;5030921;28;20068;-65
2023/07/09 06:40:45;;;;;;;19.42;8.88;;;;;;;;;;5026973;28;20036;-65
2023/07/09 06:43:12;;;;;;;18.73;9.35;;;;;;;;;;5028014;28;20052;-66
2023/07/09 06:45:39;;;;;;;23.48;10.23;;;;;;;;;;5027143;28;20469;-65
2023/07/09 06:48:06;;;;;;;22.83;9.15;;;;;;;;;;5024888;28;20069;-65
2023/07/09 06:50:37;;;;;;;24.08;9.70;;;;;;;;;;5024444;28;20048;-64
2023/07/09 06:53:04;;;;;;;20.10;9.52;;;;;;;;;;5026821;28;20062;-65
2023/07/09 06:55:31;;;;;;;23.70;9.13;;;;;;;;;;5023270;28;20041;-66
2023/07/09 06:57:58;;;;;;;20.08;9.32;;;;;;;;;;5028751;28;20473;-65
2023/07/09 07:00:24;;;;;;;22.02;10.30;;;;;;;;;;5030823;28;20627;-66
2023/07/09 07:02:51;;;;;;;21.17;10.63;;;;;;;;;;5026818;28;20037;-66
2023/07/09 07:05:18;;;;;;;21.67;10.38;;;;;;;;;;5028312;28;20103;-70
2023/07/09 07:07:44;;;;;;;20.58;9.65;;;;;;;;;;5027056;28;20049;-65
2023/07/09 07:10:11;;;;;;;18.95;10.80;;;;;;;;;;5027660;28;20056;-65
2023/07/09 07:12:43;;;;;;;20.63;11.05;;;;;;;;;;5026971;28;20029;-67
2023/07/09 07:15:10;;;;;;;20.50;10.38;;;;;;;;;;5027239;28;20071;-65
2023/07/09 07:17:36;;;;;;;21.13;10.45;;;;;;;;;;5019228;28;20130;-65
2023/07/09 07:20:03;;;;;;;18.30;9.55;;;;;;;;;;5026234;28;20044;-64
2023/07/09 07:22:29;;;;;;;17.23;10.05;;;;;;;;;;5027543;28;20067;-64
2023/07/09 07:24:56;;;;;;;21.77;9.88;;;;;;;;;;5027257;28;20053;-66
2023/07/09 07:27:23;;;;;;;17.88;10.13;;;;;;;;;;5022990;28;20123;-65
2023/07/09 07:29:49;;;;;;;19.67;10.23;;;;;;;;;;5027047;28;20138;-65
2023/07/09 07:32:16;;;;;;;22.40;10.48;;;;;;;;;;5025420;28;20044;-66
2023/07/09 07:34:42;;;;;;;23.27;10.35;;;;;;;;;;5016476;28;20398;-64
2023/07/09 07:37:09;;;;;;;26.05;10.57;;;;;;;;;;5023832;28;20033;-64
2023/07/09 07:39:36;;;;;;;21.77;9.38;;;;;;;;;;5018921;28;20048;-64
2023/07/09 07:42:02;;;;;;;17.27;9.38;;;;;;;;;;5028255;28;20282;-64
2023/07/09 07:44:29;;;;;;;23.73;9.93;;;;;;;;;;5026398;28;20498;-65
2023/07/09 07:46:56;;;;;;;18.48;9.88;;;;;;;;;;5026737;28;20040;-64
2023/07/09 07:49:23;;;;;;;18.27;9.90;;;;;;;;;;5024428;28;20053;-68
2023/07/09 07:51:49;;;;;;;18.73;10.20;;;;;;;;;;5025800;28;20539;-65
2023/07/09 07:54:18;;;;;;;24.15;9.90;;;;;;;;;;5028154;28;20076;-63
2023/07/09 07:56:44;;;;;;;22.17;10.43;;;;;;;;;;5024905;28;20037;-63
2023/07/09 07:59:11;;;;;;;18.10;9.50;;;;;;;;;;5026740;28;20491;-64
2023/07/09 08:01:37;;;;;;;24.00;10.45;;;;;;;;;;5025138;28;20080;-64
2023/07/09 08:04:04;;;;;;;24.10;10.07;;;;;;;;;;5025670;28;20565;-64
2023/07/09 08:06:31;;;;;;;23.05;10.50;;;;;;;;;;5025708;28;20991;-66
2023/07/09 08:08:58;;;;;;;17.30;9.55;;;;;;;;;;5027856;28;20176;-65
2023/07/09 08:11:25;;;;;;;18.92;9.27;;;;;;;;;;5028115;28;20759;-65
2023/07/09 08:13:52;;;;;;;17.55;9.90;;;;;;;;;;5025677;28;20045;-65
2023/07/09 08:16:18;;;;;;;16.77;9.88;;;;;;;;;;5024791;28;20770;-65
2023/07/09 08:18:45;;;;;;;19.73;10.18;;;;;;;;;;5024929;28;21507;-64
2023/07/09 08:21:12;;;;;;;22.33;10.25;;;;;;;;;;5027013;28;20049;-64
2023/07/09 08:23:38;;;;;;;18.60;9.63;;;;;;;;;;5016823;28;20061;-65
2023/07/09 08:26:05;;;;;;;20.15;10.13;;;;;;;;;;5026858;28;20037;-65
2023/07/09 08:28:32;;;;;;;19.70;9.63;;;;;;;;;;5028973;28;20708;-65
2023/07/09 08:30:59;;;;;;;17.48;8.88;;;;;;;;;;5022513;28;20071;-65
2023/07/09 08:33:26;;;;;;;18.77;10.27;;;;;;;;;;5032749;28;20809;-65
2023/07/09 08:35:54;;;;;;;21.30;9.73;;;;;;;;;;5028071;28;20045;-64
2023/07/09 08:38:21;;;;;;;15.05;8.68;;;;;;;;;;5030028;28;20040;-65
2023/07/09 08:40:59;;;;;;;22.00;8.85;;;;;;;;;;5027244;28;20037;-65
2023/07/09 08:43:25;;;;;;;15.82;9.32;;;;;;;;;;5024359;28;20049;-66
2023/07/09 08:46:15;;;;;;;18.00;9.30;;;;;;;;;;4996343;28;20716;-64
2023/07/09 08:48:43;;;;;;;21.33;8.93;;;;;;;;;;4994266;28;20084;-65
2023/07/09 08:51:30;;;;;;;18.13;9.48;;;;;;;;;;4994760;28;20048;-65
2023/07/09 08:54:00;;;;;;;19.63;9.25;;;;;;;;;;4995679;28;21124;-64
2023/07/09 08:56:27;;;;;;;17.38;8.68;;;;;;;;;;4995370;28;20052;-65
2023/07/09 08:58:55;;;;;;;18.15;8.68;;;;;;;;;;4997759;28;20053;-65
2023/07/09 09:01:28;;;;;;;17.95;8.50;;;;;;;;;;4996075;28;20044;-64
2023/07/09 09:03:58;;;;;;;16.55;8.70;;;;;;;;;;4995475;28;20154;-65
2023/07/09 09:06:29;;;;;;;21.10;8.82;;;;;;;;;;4996294;28;20042;-66
2023/07/09 09:08:59;;;;;;;20.98;9.43;;;;;;;;;;4995542;28;20121;-64
2023/07/09 09:11:39;;;;;;;16.42;8.75;;;;;;;;;;4992817;28;20073;-64
2023/07/09 09:14:08;;;;;;;21.10;9.07;;;;;;;;;;4996437;28;20505;-63
2023/07/09 09:16:37;;;;;;;19.17;8.52;;;;;;;;;;4999723;28;20123;-65
2023/07/09 09:19:04;;;;;;;14.15;8.52;;;;;;;;;;5026858;28;20119;-66
2023/07/09 09:21:35;;;;;;;18.05;8.93;;;;;;;;;;5028715;28;21274;-65
2023/07/09 09:24:24;;;;;;;16.42;7.65;;;;;;;;;;5028866;28;20045;-66
2023/07/09 09:26:53;;;;;;;16.92;8.23;;;;;;;;;;5026916;28;20052;-64
2023/07/09 09:29:19;;;;;;;17.42;8.30;;;;;;;;;;5028699;28;20071;-66
2023/07/09 09:31:51;;;;;;;15.43;8.70;;;;;;;;;;5028602;28;20231;-64
2023/07/09 09:34:18;;;;;;;17.85;8.15;;;;;;;;;;5029590;28;20525;-64
2023/07/09 09:36:45;;;;;;;16.23;8.23;;;;;;;;;;5027827;28;20890;-64
2023/07/09 09:39:12;;;;;;;14.05;8.20;;;;;;;;;;5031199;28;20090;-65
2023/07/09 09:41:40;;;;;;;15.02;8.77;;;;;;;;;;5031060;28;20040;-65
2023/07/09 09:44:06;;;;;;;16.40;8.32;;;;;;;;;;5033101;28;20072;-64
2023/07/09 09:46:34;;;;;;;14.85;8.25;;;;;;;;;;5043427;28;20041;-63
2023/07/09 09:49:01;;;;;;;15.23;8.30;;;;;;;;;;5016688;28;20083;-65
2023/07/09 09:51:28;;;;;;;16.05;8.35;;;;;;;;;;5026348;28;20071;-64
2023/07/09 09:54:02;;;;;;;12.85;8.05;;;;;;;;;;5026575;28;20040;-64
2023/07/09 09:56:36;;;;;;;15.77;8.32;;;;;;;;;;5028116;28;20029;-64
2023/07/09 09:59:03;;;;;;;20.65;8.70;;;;;;;;;;5027782;28;20041;-64
2023/07/09 10:01:37;;;;;;;17.30;7.63;;;;;;;;;;5027048;28;20654;-65
2023/07/09 10:04:04;;;;;;;13.02;7.60;;;;;;;;;;5026569;28;20045;-64
2023/07/09 10:06:42;;;;;;;14.88;8.23;;;;;;;;;;5029326;28;20513;-63
2023/07/09 10:09:20;;;;;;;12.98;7.57;;;;;;;;;;5005512;28;20428;-63
2023/07/09 10:11:47;;;;;;;17.75;8.35;;;;;;;;;;5029120;28;20339;-64
2023/07/09 10:14:29;;;;;;;18.05;7.80;;;;;;;;;;5029540;28;20041;-66
2023/07/09 10:17:00;;;;;;;17.67;8.45;;;;;;;;;;5027319;28;20048;-63
2023/07/09 10:19:42;;;;;;;12.95;7.70;;;;;;;;;;5026257;28;20040;-64
2023/07/09 10:22:16;;;;;;;13.95;7.63;;;;;;;;;;5021256;28;20045;-63
2023/07/09 10:24:49;;;;;;;13.93;8.40;;;;;;;;;;5028397;28;20587;-64
2023/07/09 10:27:23;;;;;;;17.75;8.18;;;;;;;;;;5026396;28;20064;-63
2023/07/09 10:30:05;;;;;;;13.65;8.23;;;;;;;;;;5026979;28;20326;-64
2023/07/09 10:32:47;;;;;;;16.15;7.90;;;;;;;;;;5028696;28;20045;-64
2023/07/09 10:35:17;;;;;;;14.48;8.05;;;;;;;;;;5004032;28;20037;-66
2023/07/09 10:37:50;;;;;;;15.15;8.77;;;;;;;;;;5026010;28;20044;-66
2023/07/09 10:40:17;;;;;;;;;;;;;;;;;;5028032;28;20175;-66
2023/07/09 10:42:47;;;;;;;13.38;7.35;;;;;;;;;;5026985;28;19916;-63
2023/07/09 10:45:16;;;;;;;16.65;8.45;;;;;;;;;;5002899;28;20045;-63
2023/07/09 10:47:50;;;;;;;17.15;8.73;;;;;;;;;;5023635;28;20084;-64
2023/07/09 10:50:19;;;;;;;16.77;9.02;;;;;;;;;;5011439;28;20069;-65
2023/07/09 10:52:47;;;;;;;17.17;8.65;;;;;;;;;;5020588;28;20037;-64
2023/07/09 10:55:29;;;;;;;16.55;8.40;;;;;;;;;;5026855;28;20103;-65
2023/07/09 10:57:59;;;;;;;13.88;8.40;;;;;;;;;;5026707;28;20041;-66
2023/07/09 11:00:43;;;;;;;14.30;7.82;;;;;;;;;;5027298;28;20090;-66
2023/07/09 11:03:16;;;;;;;15.43;8.70;;;;;;;;;;5027250;28;20112;-65
2023/07/09 11:05:43;;;;;;;13.60;8.27;;;;;;;;;;5009749;28;20072;-64
2023/07/09 11:08:15;;;;;;;18.17;8.50;;;;;;;;;;5026341;28;20033;-66
2023/07/09 11:10:44;;;;;;;18.38;7.93;;;;;;;;;;5027487;28;20036;-66
2023/07/09 11:13:13;;;;;;;16.08;8.45;;;;;;;;;;5021762;28;20055;-65
2023/07/09 11:15:45;;;;;;;16.67;9.05;;;;;;;;;;5003320;28;20069;-65
2023/07/09 11:18:21;;;;;;;12.85;7.93;;;;;;;;;;5026214;28;20032;-67
2023/07/09 11:20:55;;;;;;;16.80;8.27;;;;;;;;;;5027499;28;20122;-65
2023/07/09 11:23:26;;;;;;;15.93;8.30;;;;;;;;;;4986683;28;20762;-65
2023/07/09 11:26:03;;;;;;;21.10;9.13;;;;;;;;;;5002716;28;20045;-66
2023/07/09 11:28:36;;;;;;;13.27;7.88;;;;;;;;;;4986056;28;20609;-65
2023/07/09 11:31:16;;;;;;;17.30;8.45;;;;;;;;;;4987244;28;20065;-65
2023/07/09 11:33:47;;;;;;;15.02;8.35;;;;;;;;;;5001109;28;20514;-66
2023/07/09 11:36:15;;;;;;;15.38;8.05;;;;;;;;;;5001852;28;20530;-66
2023/07/09 11:38:43;;;;;;;14.75;8.20;;;;;;;;;;4984042;28;20080;-65
2023/07/09 11:41:28;;;;;;;16.65;7.95;;;;;;;;;;4986439;28;20041;-67
2023/07/09 11:44:04;;;;;;;16.17;8.07;;;;;;;;;;4990324;28;20414;-66
2023/07/09 11:46:32;;;;;;;18.15;8.63;;;;;;;;;;4984838;28;20553;-66
2023/07/09 11:49:00;;;;;;;13.13;7.57;;;;;;;;;;5004469;28;20049;-64
2023/07/09 11:51:35;;;;;;;14.63;8.10;;;;;;;;;;4984985;28;20085;-65
2023/07/09 11:54:03;;;;;;;13.93;7.78;;;;;;;;;;5002556;28;20041;-65
2023/07/09 11:56:31;;;;;;;12.57;7.60;;;;;;;;;;4985218;28;20042;-67
2023/07/09 11:58:58;;;;;;;13.40;7.43;;;;;;;;;;4984435;28;20475;-65
2023/07/09 12:01:28;;;;;;;15.77;8.60;;;;;;;;;;5015311;28;20037;-64
2023/07/09 12:03:57;;;;;;;17.80;8.10;;;;;;;;;;5019726;28;20056;-65
2023/07/09 12:06:26;;;;;;;15.60;7.65;;;;;;;;;;5026199;28;20505;-66
2023/07/09 12:08:53;;;;;;;14.48;7.63;;;;;;;;;;5020350;28;20044;-65
2023/07/09 12:11:30;;;;;;;13.57;7.28;;;;;;;;;;5040991;28;20096;-64
2023/07/09 12:14:09;;;;;;;13.70;7.78;;;;;;;;;;5025529;28;21026;-63
2023/07/09 12:16:38;;;;;;;14.50;7.93;;;;;;;;;;5024488;28;20086;-65
2023/07/09 12:19:05;;;;;;;14.10;8.38;;;;;;;;;;5025580;28;20045;-65
2023/07/09 12:21:32;;;;;;;22.70;8.40;;;;;;;;;;5023975;28;20041;-65
2023/07/09 12:23:59;;;;;;;14.30;8.93;;;;;;;;;;5021852;28;20642;-65
2023/07/09 12:26:26;;;;;;;14.07;8.48;;;;;;;;;;5024377;28;20120;-65
2023/07/09 12:28:53;;;;;;;16.00;9.05;;;;;;;;;;5032914;28;20040;-64
2023/07/09 12:31:22;;;;;;;18.75;9.27;;;;;;;;;;5025952;28;20140;-65
2023/07/09 12:33:50;;;;;;;15.55;8.93;;;;;;;;;;5010253;28;20107;-64
2023/07/09 12:36:18;;;;;;;16.13;9.35;;;;;;;;;;5024055;28;20048;-66
2023/07/09 12:38:46;;;;;;;17.35;9.25;;;;;;;;;;5024550;28;20040;-63
2023/07/09 12:41:24;;;;;;;16.70;9.32;;;;;;;;;;5025060;28;20127;-62
2023/07/09 12:43:53;;;;;;;17.00;8.45;;;;;;;;;;5009165;28;20056;-62
2023/07/09 12:46:20;;;;;;;15.93;9.18;;;;;;;;;;5027317;28;20086;-62
2023/07/09 12:48:47;;;;;;;17.08;9.90;;;;;;;;;;5023370;28;20072;-62
2023/07/09 12:51:16;;;;;;;17.15;9.77;;;;;;;;;;5027094;28;20033;-63
2023/07/09 12:53:42;;;;;;;18.52;10.15;;;;;;;;;;5017250;28;20080;-58
2023/07/09 12:56:13;;;;;;;17.30;9.73;;;;;;;;;;5030422;28;20044;-59
2023/07/09 12:58:40;;;;;;;16.75;9.52;;;;;;;;;;5031884;28;20044;-63
2023/07/09 13:01:09;;;;;;;19.85;10.50;;;;;;;;;;5030551;28;20055;-62
2023/07/09 13:03:35;;;;;;;19.90;10.90;;;;;;;;;;5030564;28;20887;-61
2023/07/09 13:06:06;;;;;;;19.23;11.15;;;;;;;;;;5032466;28;20498;-61
2023/07/09 13:08:34;;;;;;;15.25;9.27;;;;;;;;;;5029366;28;20607;-62
2023/07/09 13:11:01;;;;;;;19.55;9.98;;;;;;;;;;5030972;28;20029;-64
2023/07/09 13:13:28;;;;;;;17.77;10.45;;;;;;;;;;5019417;28;20132;-66
2023/07/09 13:16:01;;;;;;;20.85;10.18;;;;;;;;;;5031244;28;20037;-63
2023/07/09 13:18:28;;;;;;;17.45;10.15;;;;;;;;;;5019954;28;20068;-62
2023/07/09 13:20:57;;;;;;;17.15;10.02;;;;;;;;;;5000269;28;20044;-62
2023/07/09 13:23:26;;;;;;;17.25;10.77;;;;;;;;;;5027194;28;20986;-61
2023/07/09 13:25:54;;;;;;;15.43;10.13;;;;;;;;;;5010248;28;20160;-61
2023/07/09 13:28:28;;;;;;;16.98;10.18;;;;;;;;;;5026834;28;20567;-65
2023/07/09 13:30:57;;;;;;;17.58;10.07;;;;;;;;;;5026710;28;20041;-64
2023/07/09 13:33:24;;;;;;;16.15;9.82;;;;;;;;;;5019525;28;20139;-63
2023/07/09 13:35:53;;;;;;;15.48;9.75;;;;;;;;;;5029197;28;20041;-63
2023/07/09 13:38:20;;;;;;;16.55;10.27;;;;;;;;;;5027727;28;20064;-62
2023/07/09 13:40:51;;;;;;;17.27;9.48;;;;;;;;;;5027802;28;21351;-63
2023/07/09 13:43:28;;;;;;;16.05;9.68;;;;;;;;;;5010929;28;20374;-61
2023/07/09 13:45:56;;;;;;;17.60;10.45;;;;;;;;;;5025788;28;20040;-64
2023/07/09 13:48:24;;;;;;;17.65;10.13;;;;;;;;;;5018878;28;20741;-61
2023/07/09 13:50:51;;;;;;;17.50;9.77;;;;;;;;;;5021922;28;20115;-63
2023/07/09 13:53:20;;;;;;;18.02;9.45;;;;;;;;;;5026826;28;20076;-61
2023/07/09 13:55:49;;;;;;;16.92;10.02;;;;;;;;;;5027094;28;20036;-63
2023/07/09 13:58:17;;;;;;;19.50;9.65;;;;;;;;;;5026449;28;20044;-63
2023/07/09 14:00:44;;;;;;;17.38;9.80;;;;;;;;;;5026633;28;20120;-62
2023/07/09 14:03:21;;;;;;;15.57;9.73;;;;;;;;;;5027616;28;20464;-63
2023/07/09 14:05:48;;;;;;;17.98;10.35;;;;;;;;;;5025877;28;20047;-63
2023/07/09 14:08:16;;;;;;;18.27;9.82;;;;;;;;;;5027640;28;20049;-60
2023/07/09 14:10:44;;;;;;;16.55;9.98;;;;;;;;;;5025972;28;20033;-63
2023/07/09 14:13:15;;;;;;;18.92;10.00;;;;;;;;;;5030210;28;20029;-60
2023/07/09 14:15:41;;;;;;;20.70;9.88;;;;;;;;;;5029748;28;20570;-62
2023/07/09 14:18:19;;;;;;;17.85;9.80;;;;;;;;;;5026128;28;21686;-63
2023/07/09 14:20:46;;;;;;;23.23;11.02;;;;;;;;;;5023355;28;21201;-63
2023/07/09 14:23:13;;;;;;;17.02;10.05;;;;;;;;;;5022096;28;20578;-63
2023/07/09 14:25:40;;;;;;;16.52;9.32;;;;;;;;;;5024638;28;20056;-62
2023/07/09 14:28:25;;;;;;;17.98;9.82;;;;;;;;;;5025952;28;20040;-62
2023/07/09 14:30:52;;;;;;;20.25;9.63;;;;;;;;;;5026626;28;20037;-62
2023/07/09 14:33:20;;;;;;;16.38;9.20;;;;;;;;;;5027429;28;20041;-63
2023/07/09 14:35:47;;;;;;;15.38;9.13;;;;;;;;;;5003228;28;20537;-61
2023/07/09 14:38:21;;;;;;;17.83;9.27;;;;;;;;;;5025596;28;20072;-61
2023/07/09 14:40:48;;;;;;;18.23;9.63;;;;;;;;;;5027493;28;21773;-63